createdAt,value
2022-10-13T00:02:30.452Z,101451.31
2022-10-13T00:05:18.951Z,101450.50
2022-10-13T00:08:02.575Z,101450.63
2022-10-13T00:10:33.815Z,101449.13
2022-10-13T00:13:04.220Z,101440.28
2022-10-13T00:15:48.316Z,101427.09
2022-10-13T00:18:38.501Z,101414.88
2022-10-13T00:21:23.596Z,101403.84
2022-10-13T00:24:00.395Z,101394.50
2022-10-13T00:26:53.436Z,101396.50
2022-10-13T00:30:48.366Z,101396.84
2022-10-13T00:33:15.157Z,101391.31
2022-10-13T00:35:54.362Z,101396.34
2022-10-13T00:38:28.280Z,101400.34
2022-10-13T00:41:08.402Z,101412.03
2022-10-13T00:44:29.483Z,101417.72
2022-10-13T00:47:16.262Z,101413.38
2022-10-13T00:49:45.416Z,101418.91
2022-10-13T00:52:43.480Z,101410.00
2022-10-13T00:56:21.410Z,101425.53
2022-10-13T01:02:22.275Z,101440.00
2022-10-13T01:05:08.349Z,101452.84
2022-10-13T01:07:48.483Z,101449.66
2022-10-13T01:10:40.511Z,101456.94
2022-10-13T01:13:51.481Z,101449.53
2022-10-13T01:16:41.496Z,101463.50
2022-10-13T01:19:32.815Z,101465.34
2022-10-13T01:22:32.637Z,101475.63
2022-10-13T01:25:10.006Z,101480.97
2022-10-13T01:28:24.413Z,101495.00
2022-10-13T01:31:24.623Z,101503.88
2022-10-13T01:34:35.919Z,101518.53
2022-10-13T01:37:50.486Z,101540.81
2022-10-13T01:40:49.185Z,101543.44
2022-10-13T01:46:41.169Z,101551.63
2022-10-13T01:49:34.396Z,101563.63
2022-10-13T01:52:16.238Z,101568.28
2022-10-13T01:54:58.175Z,101579.69
2022-10-13T01:57:45.621Z,101595.00
2022-10-13T02:00:34.016Z,101596.56
2022-10-13T02:03:16.823Z,101610.72
2022-10-13T02:06:07.605Z,101618.59
2022-10-13T02:09:27.480Z,101616.31
2022-10-13T02:12:16.755Z,101619.50
2022-10-13T02:14:53.999Z,101599.22
2022-10-13T02:17:49.409Z,101585.81
2022-10-13T02:23:12.091Z,101627.47
2022-10-13T02:25:39.982Z,101637.72
2022-10-13T02:28:21.832Z,101658.75
2022-10-13T02:31:02.075Z,101669.13
2022-10-13T02:36:42.426Z,101705.34
2022-10-13T02:43:04.990Z,101727.38
2022-10-13T02:45:40.622Z,101739.22
2022-10-13T02:48:13.376Z,101738.41
2022-10-13T02:51:42.926Z,101737.78
2022-10-13T02:54:07.328Z,101756.84
2022-10-13T02:57:11.011Z,101772.34
2022-10-13T02:59:59.009Z,101782.34
2022-10-13T03:02:33.006Z,101793.50
2022-10-13T03:05:18.267Z,101804.09
2022-10-13T03:08:06.166Z,101813.03
2022-10-13T03:11:11.804Z,101819.56
2022-10-13T03:14:13.228Z,101832.88
2022-10-13T03:17:13.551Z,101839.38
2022-10-13T03:19:57.209Z,101844.09
2022-10-13T03:23:04.914Z,101856.16
2022-10-13T03:26:02.124Z,101862.19
2022-10-13T03:28:28.999Z,101860.81
2022-10-13T03:31:34.970Z,101867.91
2022-10-13T03:34:55.384Z,101858.06
2022-10-13T03:37:22.930Z,101861.50
2022-10-13T03:40:10.903Z,101868.91
2022-10-13T03:43:29.700Z,101874.88
2022-10-13T03:47:16.779Z,101877.84
2022-10-13T03:50:41.395Z,101864.31
2022-10-13T03:53:28.848Z,101866.97
2022-10-13T03:59:25.205Z,101853.00
2022-10-13T04:02:05.292Z,101851.63
2022-10-13T04:04:53.431Z,101847.91
2022-10-13T04:07:26.820Z,101847.78
2022-10-13T04:10:11.482Z,101848.75
2022-10-13T04:16:01.856Z,101819.88
2022-10-13T04:18:43.689Z,101822.09
2022-10-13T04:21:59.785Z,101813.72
2022-10-13T04:27:41.961Z,101830.06
2022-10-13T04:30:11.512Z,101832.63
2022-10-13T04:32:41.369Z,101821.25
2022-10-13T04:35:09.065Z,101817.75
2022-10-13T04:37:35.882Z,101821.19
2022-10-13T04:40:03.081Z,101825.66
2022-10-13T04:42:31.290Z,101822.63
2022-10-13T04:44:57.910Z,101829.34
2022-10-13T04:47:27.229Z,101843.69
2022-10-13T04:50:05.590Z,101837.03
2022-10-13T04:52:32.540Z,101837.28
2022-10-13T04:57:40.103Z,101840.25
2022-10-13T05:00:07.741Z,101857.75
2022-10-13T05:02:50.536Z,101849.25
2022-10-13T05:05:20.253Z,101842.44
2022-10-13T05:08:26.507Z,101838.91
2022-10-13T05:11:07.671Z,101823.66
2022-10-13T05:13:55.833Z,101812.47
2022-10-13T05:16:25.963Z,101792.56
2022-10-13T05:19:10.599Z,101791.25
2022-10-13T05:22:12.274Z,101798.22
2022-10-13T05:28:08.479Z,101768.50
2022-10-13T05:30:45.631Z,101756.22
2022-10-13T05:33:20.130Z,101748.88
2022-10-13T05:35:51.270Z,101738.34
2022-10-13T05:38:26.758Z,101724.97
2022-10-13T05:41:01.028Z,101714.97
2022-10-13T05:44:25.529Z,101696.88
2022-10-13T05:46:42.889Z,101695.25
2022-10-13T05:49:17.362Z,101681.88
2022-10-13T05:52:09.040Z,101671.38
2022-10-13T05:54:42.293Z,101663.69
2022-10-13T05:57:41.444Z,101637.09
2022-10-13T06:00:14.226Z,101621.84
2022-10-13T06:03:02.370Z,101609.34
2022-10-13T06:05:39.012Z,101590.75
2022-10-13T06:08:09.870Z,101583.41
2022-10-13T06:10:42.755Z,101573.38
2022-10-13T06:13:09.998Z,101558.16
2022-10-13T06:15:36.717Z,101553.66
2022-10-13T06:18:12.822Z,101546.28
2022-10-13T06:20:42.870Z,101540.59
2022-10-13T06:23:23.448Z,101538.78
2022-10-13T06:26:04.919Z,101532.59
2022-10-13T06:28:59.126Z,101510.50
2022-10-13T06:31:36.203Z,101498.78
2022-10-13T06:34:06.985Z,101492.91
2022-10-13T06:36:38.933Z,101484.56
2022-10-13T06:39:15.507Z,101467.28
2022-10-13T06:41:50.650Z,101450.06
2022-10-13T06:44:18.507Z,101434.16
2022-10-13T06:49:51.013Z,101417.03
2022-10-13T07:04:48.307Z,101323.72
2022-10-13T07:07:18.089Z,101305.97
2022-10-13T07:09:53.634Z,101275.78
2022-10-13T07:12:23.244Z,101259.69
2022-10-13T07:14:55.530Z,101239.00
2022-10-13T07:17:25.064Z,101215.66
2022-10-13T07:23:07.817Z,101165.44
2022-10-13T07:25:37.876Z,101149.25
2022-10-13T07:29:12.282Z,101143.16
2022-10-13T07:35:54.294Z,101096.59
2022-10-13T07:38:20.843Z,101068.50
2022-10-13T07:40:48.509Z,101048.59
2022-10-13T07:43:42.759Z,101009.66
2022-10-13T07:46:11.347Z,100993.72
2022-10-13T07:48:38.023Z,100968.41
2022-10-13T07:51:32.662Z,100945.53
2022-10-13T07:54:25.165Z,100921.47
2022-10-13T07:57:19.747Z,100911.75
2022-10-13T07:59:46.353Z,100893.13
2022-10-13T08:15:29.837Z,100830.34
2022-10-13T08:23:13.039Z,100803.34
2022-10-13T08:29:59.888Z,100779.31
2022-10-13T08:36:26.242Z,100770.69
2022-10-13T08:39:02.583Z,100756.03
2022-10-13T08:49:47.787Z,100706.66
2022-10-13T08:53:05.541Z,100698.34
2022-10-13T08:55:43.208Z,100691.09
2022-10-13T08:58:27.087Z,100683.97
2022-10-13T09:08:48.969Z,100675.59
2022-10-13T09:27:26.318Z,100655.03
2022-10-13T09:31:02.798Z,100659.03
2022-10-13T09:36:32.699Z,100656.34
2022-10-13T09:39:11.237Z,100658.84
2022-10-13T09:41:46.285Z,100654.66
2022-10-13T09:44:25.594Z,100653.88
2022-10-13T09:47:47.631Z,100654.47
2022-10-13T09:51:08.168Z,100644.19
2022-10-13T09:56:12.909Z,100635.56
2022-10-13T09:57:48.231Z,100622.25
2022-10-13T10:01:00.431Z,100610.09
2022-10-13T10:06:51.796Z,100606.19
2022-10-13T10:10:39.370Z,100611.03
2022-10-13T10:13:19.591Z,100597.91
2022-10-13T10:19:37.525Z,100590.25
2022-10-13T10:30:21.468Z,100563.59
2022-10-13T10:47:11.428Z,100553.41
2022-10-13T10:57:26.683Z,100528.94
2022-10-13T11:00:53.260Z,100529.22
2022-10-13T11:03:57.367Z,100516.28
2022-10-13T11:07:00.540Z,100503.66
2022-10-13T11:09:45.569Z,100501.91
2022-10-13T11:12:56.830Z,100501.72
2022-10-13T11:15:41.345Z,100492.59
2022-10-13T11:19:05.422Z,100481.06
2022-10-13T11:22:25.852Z,100464.13
2022-10-13T11:25:09.287Z,100466.13
2022-10-13T11:27:35.920Z,100466.84
2022-10-13T11:30:18.264Z,100461.56
2022-10-13T11:33:02.691Z,100456.84
2022-10-13T11:35:38.503Z,100457.31
2022-10-13T11:38:28.163Z,100454.66
2022-10-13T11:40:54.852Z,100453.59
2022-10-13T11:43:34.306Z,100456.03
2022-10-13T11:46:07.049Z,100462.28
2022-10-13T11:49:02.907Z,100452.00
2022-10-13T11:51:41.586Z,100440.91
2022-10-13T11:54:29.738Z,100438.28
2022-10-13T11:57:14.292Z,100437.56
2022-10-13T12:00:05.578Z,100428.72
2022-10-13T12:02:50.874Z,100419.72
2022-10-13T12:05:24.373Z,100418.53
2022-10-13T12:07:52.856Z,100421.41
2022-10-13T12:10:39.340Z,100412.22
2022-10-13T12:13:23.308Z,100410.97
2022-10-13T12:16:06.319Z,100412.22
2022-10-13T12:21:27.057Z,100419.13
2022-10-13T12:24:15.305Z,100424.16
2022-10-13T12:26:45.345Z,100424.13
2022-10-13T12:29:24.950Z,100422.28
2022-10-13T12:31:58.743Z,100419.28
2022-10-13T12:34:33.259Z,100418.91
2022-10-13T12:37:24.535Z,100417.34
2022-10-13T12:39:58.856Z,100402.28
2022-10-13T12:42:41.330Z,100396.88
2022-10-13T12:45:44.487Z,100392.75
2022-10-13T12:48:37.627Z,100392.59
2022-10-13T12:51:37.502Z,100396.47
2022-10-13T12:54:22.598Z,100381.78
2022-10-13T12:56:59.620Z,100380.34
2022-10-13T12:59:28.129Z,100381.34
2022-10-13T13:01:58.004Z,100379.31
2022-10-13T13:04:31.205Z,100377.09
2022-10-13T13:07:01.145Z,100371.06
2022-10-13T13:09:35.569Z,100380.94
2022-10-13T13:12:23.218Z,100367.56
2022-10-13T13:14:53.227Z,100372.50
2022-10-13T13:20:37.862Z,100372.88
2022-10-13T13:23:05.590Z,100365.44
2022-10-13T13:25:33.747Z,100364.59
2022-10-13T13:28:10.948Z,100367.19
2022-10-13T13:30:37.517Z,100369.38
2022-10-13T13:33:13.230Z,100367.19
2022-10-13T13:35:39.872Z,100373.22
2022-10-13T13:38:08.447Z,100370.13
2022-10-13T13:40:42.874Z,100361.78
2022-10-13T13:43:12.301Z,100364.78
2022-10-13T13:45:53.346Z,100369.72
2022-10-13T13:48:20.053Z,100371.84
2022-10-13T13:51:00.666Z,100366.84
2022-10-13T13:53:27.569Z,100360.81
2022-10-13T13:55:54.496Z,100365.66
2022-10-13T13:58:28.755Z,100370.03
2022-10-13T14:01:11.736Z,100365.66
2022-10-13T14:03:38.768Z,100360.88
2022-10-13T14:06:07.833Z,100358.63
2022-10-13T14:08:43.417Z,100370.03
2022-10-13T14:11:10.296Z,100365.09
2022-10-13T14:13:37.123Z,100375.31
2022-10-13T14:16:04.475Z,100363.16
2022-10-13T14:18:33.444Z,100371.06
2022-10-13T14:21:07.380Z,100365.50
2022-10-13T14:23:56.100Z,100360.25
2022-10-13T14:26:31.934Z,100363.03
2022-10-13T14:29:03.929Z,100353.22
2022-10-13T14:31:30.836Z,100353.00
2022-10-13T14:34:03.593Z,100350.09
2022-10-13T14:36:32.613Z,100335.84
2022-10-13T14:38:59.314Z,100341.72
2022-10-13T14:41:31.500Z,100344.66
2022-10-13T14:43:58.204Z,100335.16
2022-10-13T14:46:28.228Z,100344.66
2022-10-13T14:49:04.150Z,100345.00
2022-10-13T14:51:36.372Z,100337.97
2022-10-13T14:54:04.441Z,100350.41
2022-10-13T14:56:34.504Z,100355.63
2022-10-13T14:59:06.006Z,100353.06
2022-10-13T15:02:02.816Z,100352.38
2022-10-13T15:07:20.351Z,100368.09
2022-10-13T15:09:53.055Z,100379.06
2022-10-13T15:12:28.159Z,100380.44
2022-10-13T15:15:01.282Z,100395.81
2022-10-13T15:17:29.465Z,100410.09
2022-10-13T15:19:56.357Z,100425.53
2022-10-13T15:22:23.395Z,100429.47
2022-10-13T15:24:50.270Z,100445.06
2022-10-13T15:27:17.101Z,100463.25
2022-10-13T15:29:43.709Z,100477.69
2022-10-13T15:32:17.657Z,100487.56
2022-10-13T15:34:49.573Z,100508.94
2022-10-13T15:37:16.182Z,100514.81
2022-10-13T15:39:42.887Z,100528.56
2022-10-13T15:42:10.769Z,100532.16
2022-10-13T15:45:04.677Z,100542.94
2022-10-13T15:47:24.142Z,100557.59
2022-10-13T15:49:50.677Z,100550.34
2022-10-13T15:52:17.316Z,100557.22
2022-10-13T15:54:44.043Z,100555.38
2022-10-13T15:57:12.132Z,100561.59
2022-10-13T15:59:38.814Z,100562.31
2022-10-13T16:02:12.752Z,100553.63
2022-10-13T16:04:39.354Z,100548.53
2022-10-13T16:07:06.049Z,100550.81
2022-10-13T16:09:32.610Z,100558.56
2022-10-13T16:11:59.233Z,100569.38
2022-10-13T16:14:25.787Z,100567.78
2022-10-13T16:16:52.447Z,100560.59
2022-10-13T16:19:19.019Z,100548.41
2022-10-13T16:21:46.844Z,100554.06
2022-10-13T16:24:14.494Z,100538.41
2022-10-13T16:26:46.215Z,100540.69
2022-10-13T16:29:12.820Z,100539.66
2022-10-13T16:31:39.402Z,100535.22
2022-10-13T16:34:07.029Z,100527.13
2022-10-13T16:36:33.639Z,100527.19
2022-10-13T16:39:02.571Z,100536.94
2022-10-13T16:41:29.117Z,100544.97
2022-10-13T16:43:55.773Z,100568.25
2022-10-13T16:46:24.845Z,100590.88
2022-10-13T16:48:56.699Z,100606.06
2022-10-13T16:51:27.270Z,100628.03
2022-10-13T16:53:58.717Z,100644.41
2022-10-13T16:56:29.906Z,100668.06
2022-10-13T16:58:59.703Z,100689.16
2022-10-13T17:01:26.869Z,100705.75
2022-10-13T17:03:53.637Z,100728.91
2022-10-13T17:06:22.521Z,100748.16
2022-10-13T17:08:54.668Z,100772.38
2022-10-13T17:11:23.706Z,100794.31
2022-10-13T17:13:52.208Z,100818.28
2022-10-13T17:16:19.464Z,100841.66
2022-10-13T17:18:46.477Z,100869.75
2022-10-13T17:21:15.104Z,100882.97
2022-10-13T17:23:47.388Z,100904.50
2022-10-13T17:26:16.650Z,100922.25
2022-10-13T17:28:43.298Z,100929.97
2022-10-13T17:31:16.473Z,100958.47
2022-10-13T17:33:43.842Z,100964.50
2022-10-13T17:36:17.947Z,100985.16
2022-10-13T17:38:45.458Z,100999.00
2022-10-13T17:41:16.134Z,101021.31
2022-10-13T17:43:50.121Z,101044.22
2022-10-13T17:46:36.103Z,101060.59
2022-10-13T17:49:04.290Z,101068.41
2022-10-13T17:51:30.839Z,101078.06
2022-10-13T17:53:58.834Z,101091.09
2022-10-13T17:56:25.662Z,101097.50
2022-10-13T17:58:52.811Z,101111.31
2022-10-13T18:01:25.444Z,101127.88
2022-10-13T18:03:57.385Z,101138.22
2022-10-13T18:06:37.704Z,101143.81
2022-10-13T18:09:12.719Z,101145.66
2022-10-13T18:11:41.774Z,101154.13
2022-10-13T18:14:10.004Z,101160.34
2022-10-13T18:16:46.443Z,101157.94
2022-10-13T18:19:13.433Z,101170.69
2022-10-13T18:21:40.263Z,101171.25
2022-10-13T18:24:07.248Z,101181.84
2022-10-13T18:26:36.726Z,101183.81
2022-10-13T18:29:04.956Z,101186.25
2022-10-13T18:31:34.694Z,101198.28
2022-10-13T18:34:03.678Z,101205.88
2022-10-13T18:36:35.708Z,101216.38
2022-10-13T18:39:14.599Z,101223.63
2022-10-13T18:41:44.865Z,101232.06
2022-10-13T18:44:11.722Z,101247.16
2022-10-13T18:46:39.213Z,101248.63
2022-10-13T18:49:07.241Z,101254.31
2022-10-13T18:51:36.462Z,101261.75
2022-10-13T18:54:03.924Z,101263.53
2022-10-13T18:56:31.792Z,101265.06
2022-10-13T18:59:01.041Z,101265.19
2022-10-13T19:01:30.411Z,101275.38
2022-10-13T19:03:57.245Z,101279.78
2022-10-13T19:06:26.921Z,101271.59
2022-10-13T19:08:58.608Z,101280.44
2022-10-13T19:11:25.359Z,101274.16
2022-10-13T19:13:56.471Z,101271.22
2022-10-13T19:16:29.709Z,101276.97
2022-10-13T19:18:58.864Z,101277.50
2022-10-13T19:21:25.872Z,101278.91
2022-10-13T19:23:58.672Z,101290.69
2022-10-13T19:26:28.832Z,101302.66
2022-10-13T19:29:13.995Z,101322.72
2022-10-13T19:31:41.517Z,101323.66
2022-10-13T19:34:09.165Z,101322.44
2022-10-13T19:36:39.035Z,101337.34
2022-10-13T19:39:11.673Z,101340.69
2022-10-13T19:41:39.183Z,101349.50
2022-10-13T19:44:06.013Z,101351.53
2022-10-13T19:46:40.006Z,101373.06
2022-10-13T19:49:06.944Z,101367.16
2022-10-13T19:51:35.118Z,101367.53
2022-10-13T19:54:02.152Z,101369.78
2022-10-13T19:56:31.602Z,101370.78
2022-10-13T19:58:58.770Z,101369.47
2022-10-13T20:01:25.330Z,101378.56
2022-10-13T20:03:52.071Z,101378.56
2022-10-13T20:06:26.602Z,101377.72
2022-10-13T20:09:00.437Z,101376.88
2022-10-13T20:11:36.475Z,101379.41
2022-10-13T20:14:03.648Z,101381.59
2022-10-13T20:16:30.486Z,101384.66
2022-10-13T20:18:58.656Z,101394.75
2022-10-13T20:21:26.497Z,101397.28
2022-10-13T20:24:03.835Z,101410.69
2022-10-13T20:26:36.113Z,101405.78
2022-10-13T20:29:03.110Z,101402.16
2022-10-13T20:31:32.579Z,101398.28
2022-10-13T20:34:13.386Z,101399.69
2022-10-13T20:36:55.813Z,101400.69
2022-10-13T20:39:22.443Z,101411.88
2022-10-13T20:41:49.122Z,101412.75
2022-10-13T20:44:17.099Z,101421.78
2022-10-13T20:46:43.913Z,101414.59
2022-10-13T20:49:12.272Z,101423.19
2022-10-13T20:51:39.935Z,101416.31
2022-10-13T20:54:06.839Z,101407.63
2022-10-13T20:56:43.386Z,101395.78
2022-10-13T20:59:12.421Z,101390.78
2022-10-13T21:01:39.063Z,101396.97
2022-10-13T21:04:11.446Z,101391.97
2022-10-13T21:06:38.553Z,101378.91
2022-10-13T21:09:08.095Z,101370.09
2022-10-13T21:11:42.735Z,101376.41
2022-10-13T21:14:10.421Z,101361.69
2022-10-13T21:16:37.735Z,101347.16
2022-10-13T21:19:14.013Z,101348.63
2022-10-13T21:21:44.032Z,101352.34
2022-10-13T21:24:13.891Z,101356.50
2022-10-13T21:26:45.597Z,101353.84
2022-10-13T21:29:24.578Z,101352.88
2022-10-13T21:31:51.268Z,101349.91
2022-10-13T21:34:17.842Z,101347.31
2022-10-13T21:36:45.433Z,101356.97
2022-10-13T21:39:16.054Z,101346.63
2022-10-13T21:41:51.677Z,101336.59
2022-10-13T21:44:18.227Z,101332.88
2022-10-13T21:46:44.920Z,101330.44
2022-10-13T21:49:17.590Z,101328.78
2022-10-13T21:51:44.326Z,101326.84
2022-10-13T21:54:12.201Z,101323.16
2022-10-13T21:56:42.069Z,101325.19
2022-10-13T21:59:23.106Z,101324.16
2022-10-13T22:01:51.772Z,101320.63
2022-10-13T22:04:21.562Z,101323.06
2022-10-13T22:06:51.006Z,101331.66
2022-10-13T22:09:24.933Z,101328.69
2022-10-13T22:11:58.468Z,101328.06
2022-10-13T22:14:35.140Z,101335.28
2022-10-13T22:17:04.866Z,101336.50
2022-10-13T22:19:33.911Z,101330.31
2022-10-13T22:22:18.302Z,101340.28
2022-10-13T22:24:52.424Z,101341.47
2022-10-13T22:27:24.375Z,101334.38
2022-10-13T22:29:55.761Z,101336.06
2022-10-13T22:32:22.351Z,101330.69
2022-10-13T22:34:49.071Z,101333.75
2022-10-13T22:37:15.895Z,101335.56
2022-10-13T22:39:42.573Z,101339.50
2022-10-13T22:42:15.107Z,101351.53
2022-10-13T22:44:52.147Z,101352.06
2022-10-13T22:47:22.209Z,101349.84
2022-10-13T22:49:53.767Z,101348.47
2022-10-13T22:52:29.142Z,101356.03
2022-10-13T22:54:55.800Z,101353.34
2022-10-13T22:57:39.921Z,101353.56
2022-10-13T23:00:10.686Z,101366.69
2022-10-13T23:02:53.505Z,101365.41
2022-10-13T23:05:28.917Z,101371.03
2022-10-13T23:08:03.096Z,101371.78
2022-10-13T23:10:37.546Z,101371.03
2022-10-13T23:13:23.860Z,101370.59
2022-10-13T23:16:12.521Z,101378.19
2022-10-13T23:18:51.312Z,101379.75
2022-10-13T23:21:43.789Z,101376.41
2022-10-13T23:24:19.521Z,101383.00
2022-10-13T23:27:01.105Z,101386.34
2022-10-13T23:29:35.250Z,101386.13
2022-10-13T23:32:10.047Z,101394.19
2022-10-13T23:34:49.495Z,101402.63
2022-10-13T23:37:23.252Z,101395.47
2022-10-13T23:39:57.186Z,101382.81
2022-10-13T23:42:46.692Z,101383.66
2022-10-13T23:45:15.805Z,101393.81
2022-10-13T23:47:45.524Z,101392.53
2022-10-13T23:50:17.782Z,101396.44
2022-10-13T23:53:08.604Z,101392.72
2022-10-13T23:55:46.734Z,101394.56
2022-10-13T23:58:16.117Z,101397.63
